sensor_id;sensor_type;location;lat;lon;timestamp;P1;durP1;ratioP1;P2;durP2;ratioP2
16119;SDS011;12670;53.502;10.252;2024-03-22T00:02:53;22.40;;;8.63;;
16119;SDS011;12670;53.502;10.252;2024-03-22T00:05:54;20.47;;;8.23;;
16119;SDS011;12670;53.502;10.252;2024-03-22T00:08:57;18.37;;;8.80;;
16119;SDS011;12670;53.502;10.252;2024-03-22T00:11:58;20.87;;;8.73;;
16119;SDS011;12670;53.502;10.252;2024-03-22T00:15:00;17.63;;;8.60;;
16119;SDS011;12670;53.502;10.252;2024-03-22T00:18:02;20.47;;;9.27;;
16119;SDS011;12670;53.502;10.252;2024-03-22T00:21:03;16.80;;;8.97;;
16119;SDS011;12670;53.502;10.252;2024-03-22T00:24:06;15.97;;;8.97;;
16119;SDS011;12670;53.502;10.252;2024-03-22T00:27:08;18.03;;;9.00;;
16119;SDS011;12670;53.502;10.252;2024-03-22T00:30:09;20.87;;;9.60;;
16119;SDS011;12670;53.502;10.252;2024-03-22T00:33:11;23.27;;;9.87;;
16119;SDS011;12670;53.502;10.252;2024-03-22T00:36:12;23.07;;;9.03;;
16119;SDS011;12670;53.502;10.252;2024-03-22T00:39:15;20.27;;;9.70;;
16119;SDS011;12670;53.502;10.252;2024-03-22T00:42:16;19.37;;;8.90;;
16119;SDS011;12670;53.502;10.252;2024-03-22T00:45:17;19.77;;;9.60;;
16119;SDS011;12670;53.502;10.252;2024-03-22T00:48:18;19.40;;;9.37;;
16119;SDS011;12670;53.502;10.252;2024-03-22T00:51:20;17.50;;;9.47;;
16119;SDS011;12670;53.502;10.252;2024-03-22T00:54:22;18.03;;;8.80;;
16119;SDS011;12670;53.502;10.252;2024-03-22T00:57:24;22.00;;;9.43;;
16119;SDS011;12670;53.502;10.252;2024-03-22T01:00:24;17.37;;;9.60;;
16119;SDS011;12670;53.502;10.252;2024-03-22T01:03:26;20.17;;;9.90;;
16119;SDS011;12670;53.502;10.252;2024-03-22T01:06:28;23.97;;;10.50;;
16119;SDS011;12670;53.502;10.252;2024-03-22T01:09:30;18.13;;;10.27;;
16119;SDS011;12670;53.502;10.252;2024-03-22T01:12:32;21.17;;;10.50;;
16119;SDS011;12670;53.502;10.252;2024-03-22T01:15:33;19.43;;;10.00;;
16119;SDS011;12670;53.502;10.252;2024-03-22T01:18:34;19.40;;;10.20;;
16119;SDS011;12670;53.502;10.252;2024-03-22T01:21:35;24.13;;;10.57;;
16119;SDS011;12670;53.502;10.252;2024-03-22T01:24:38;26.10;;;11.60;;
16119;SDS011;12670;53.502;10.252;2024-03-22T01:27:39;19.83;;;10.33;;
16119;SDS011;12670;53.502;10.252;2024-03-22T01:30:42;20.47;;;11.40;;
16119;SDS011;12670;53.502;10.252;2024-03-22T01:33:43;20.27;;;11.07;;
16119;SDS011;12670;53.502;10.252;2024-03-22T01:36:45;23.77;;;12.07;;
16119;SDS011;12670;53.502;10.252;2024-03-22T01:39:47;29.33;;;12.07;;
16119;SDS011;12670;53.502;10.252;2024-03-22T01:42:52;25.10;;;12.13;;
16119;SDS011;12670;53.502;10.252;2024-03-22T01:45:53;22.43;;;11.77;;
16119;SDS011;12670;53.502;10.252;2024-03-22T01:48:55;20.97;;;11.80;;
16119;SDS011;12670;53.502;10.252;2024-03-22T01:51:56;23.90;;;12.63;;
16119;SDS011;12670;53.502;10.252;2024-03-22T01:54:59;22.60;;;12.63;;
16119;SDS011;12670;53.502;10.252;2024-03-22T01:58:00;28.87;;;13.10;;
16119;SDS011;12670;53.502;10.252;2024-03-22T02:01:03;26.20;;;13.03;;
16119;SDS011;12670;53.502;10.252;2024-03-22T02:04:05;28.30;;;13.70;;
16119;SDS011;12670;53.502;10.252;2024-03-22T02:07:06;23.97;;;13.50;;
16119;SDS011;12670;53.502;10.252;2024-03-22T02:10:09;25.17;;;13.10;;
16119;SDS011;12670;53.502;10.252;2024-03-22T02:13:11;24.30;;;14.33;;
16119;SDS011;12670;53.502;10.252;2024-03-22T02:16:12;23.30;;;13.73;;
16119;SDS011;12670;53.502;10.252;2024-03-22T02:19:14;29.63;;;14.90;;
16119;SDS011;12670;53.502;10.252;2024-03-22T02:22:15;27.73;;;13.37;;
16119;SDS011;12670;53.502;10.252;2024-03-22T02:25:18;24.50;;;13.37;;
16119;SDS011;12670;53.502;10.252;2024-03-22T02:28:20;26.77;;;14.80;;
16119;SDS011;12670;53.502;10.252;2024-03-22T02:31:20;28.50;;;14.30;;
16119;SDS011;12670;53.502;10.252;2024-03-22T02:34:22;27.50;;;15.43;;
16119;SDS011;12670;53.502;10.252;2024-03-22T02:37:23;32.30;;;15.73;;
16119;SDS011;12670;53.502;10.252;2024-03-22T02:40:26;24.33;;;14.63;;
16119;SDS011;12670;53.502;10.252;2024-03-22T02:43:27;27.53;;;15.60;;
16119;SDS011;12670;53.502;10.252;2024-03-22T02:46:29;31.60;;;16.27;;
16119;SDS011;12670;53.502;10.252;2024-03-22T02:49:31;28.53;;;15.50;;
16119;SDS011;12670;53.502;10.252;2024-03-22T02:52:32;30.10;;;15.60;;
16119;SDS011;12670;53.502;10.252;2024-03-22T02:55:38;38.07;;;16.30;;
16119;SDS011;12670;53.502;10.252;2024-03-22T02:58:40;30.00;;;16.37;;
16119;SDS011;12670;53.502;10.252;2024-03-22T03:01:41;29.00;;;16.07;;
16119;SDS011;12670;53.502;10.252;2024-03-22T03:04:42;32.37;;;16.70;;
16119;SDS011;12670;53.502;10.252;2024-03-22T03:07:44;30.90;;;16.83;;
16119;SDS011;12670;53.502;10.252;2024-03-22T03:10:46;30.47;;;16.83;;
16119;SDS011;12670;53.502;10.252;2024-03-22T03:13:48;30.67;;;16.73;;
16119;SDS011;12670;53.502;10.252;2024-03-22T03:16:48;35.17;;;18.50;;
16119;SDS011;12670;53.502;10.252;2024-03-22T03:19:50;31.10;;;17.00;;
16119;SDS011;12670;53.502;10.252;2024-03-22T03:22:51;39.23;;;18.90;;
16119;SDS011;12670;53.502;10.252;2024-03-22T03:25:54;33.73;;;18.93;;
16119;SDS011;12670;53.502;10.252;2024-03-22T03:28:55;36.00;;;18.37;;
16119;SDS011;12670;53.502;10.252;2024-03-22T03:31:56;37.93;;;19.77;;
16119;SDS011;12670;53.502;10.252;2024-03-22T03:34:57;38.97;;;19.20;;
16119;SDS011;12670;53.502;10.252;2024-03-22T03:37:59;39.17;;;20.20;;
16119;SDS011;12670;53.502;10.252;2024-03-22T03:41:01;36.60;;;18.93;;
16119;SDS011;12670;53.502;10.252;2024-03-22T03:44:03;33.07;;;19.17;;
16119;SDS011;12670;53.502;10.252;2024-03-22T03:47:04;36.10;;;20.17;;
16119;SDS011;12670;53.502;10.252;2024-03-22T03:50:06;37.37;;;20.23;;
16119;SDS011;12670;53.502;10.252;2024-03-22T03:53:07;36.80;;;20.83;;
16119;SDS011;12670;53.502;10.252;2024-03-22T03:56:10;41.03;;;21.20;;
16119;SDS011;12670;53.502;10.252;2024-03-22T03:59:12;40.33;;;21.23;;
16119;SDS011;12670;53.502;10.252;2024-03-22T04:02:13;36.43;;;20.40;;
16119;SDS011;12670;53.502;10.252;2024-03-22T04:05:14;39.43;;;20.83;;
16119;SDS011;12670;53.502;10.252;2024-03-22T04:08:15;43.07;;;22.07;;
16119;SDS011;12670;53.502;10.252;2024-03-22T04:11:18;41.13;;;21.73;;
16119;SDS011;12670;53.502;10.252;2024-03-22T04:14:19;40.50;;;21.00;;
16119;SDS011;12670;53.502;10.252;2024-03-22T04:17:21;41.33;;;21.20;;
16119;SDS011;12670;53.502;10.252;2024-03-22T04:20:21;41.37;;;21.63;;
16119;SDS011;12670;53.502;10.252;2024-03-22T04:23:23;39.33;;;21.60;;
16119;SDS011;12670;53.502;10.252;2024-03-22T04:26:26;42.80;;;22.27;;
16119;SDS011;12670;53.502;10.252;2024-03-22T04:29:27;40.77;;;22.13;;
16119;SDS011;12670;53.502;10.252;2024-03-22T04:32:28;41.53;;;22.87;;
16119;SDS011;12670;53.502;10.252;2024-03-22T04:35:30;42.50;;;22.03;;
16119;SDS011;12670;53.502;10.252;2024-03-22T04:38:31;42.77;;;23.40;;
16119;SDS011;12670;53.502;10.252;2024-03-22T04:41:34;43.53;;;22.90;;
16119;SDS011;12670;53.502;10.252;2024-03-22T04:44:36;46.83;;;23.67;;
16119;SDS011;12670;53.502;10.252;2024-03-22T04:47:38;40.80;;;22.33;;
16119;SDS011;12670;53.502;10.252;2024-03-22T04:50:41;44.70;;;23.60;;
16119;SDS011;12670;53.502;10.252;2024-03-22T04:53:42;48.07;;;23.93;;
16119;SDS011;12670;53.502;10.252;2024-03-22T04:56:45;41.83;;;22.53;;
16119;SDS011;12670;53.502;10.252;2024-03-22T04:59:47;45.80;;;23.03;;
16119;SDS011;12670;53.502;10.252;2024-03-22T05:02:48;47.30;;;24.50;;
16119;SDS011;12670;53.502;10.252;2024-03-22T05:05:50;45.80;;;23.50;;
16119;SDS011;12670;53.502;10.252;2024-03-22T05:08:51;47.63;;;24.57;;
16119;SDS011;12670;53.502;10.252;2024-03-22T05:11:54;50.03;;;24.37;;
16119;SDS011;12670;53.502;10.252;2024-03-22T05:14:56;48.97;;;25.50;;
16119;SDS011;12670;53.502;10.252;2024-03-22T05:17:57;46.23;;;23.30;;
16119;SDS011;12670;53.502;10.252;2024-03-22T05:20:59;47.40;;;24.90;;
16119;SDS011;12670;53.502;10.252;2024-03-22T05:24:00;46.27;;;24.03;;
16119;SDS011;12670;53.502;10.252;2024-03-22T05:27:03;48.37;;;25.00;;
16119;SDS011;12670;53.502;10.252;2024-03-22T05:30:04;45.67;;;24.20;;
16119;SDS011;12670;53.502;10.252;2024-03-22T05:33:07;46.97;;;24.77;;
16119;SDS011;12670;53.502;10.252;2024-03-22T05:36:08;57.77;;;26.40;;
16119;SDS011;12670;53.502;10.252;2024-03-22T05:39:10;49.80;;;25.17;;
16119;SDS011;12670;53.502;10.252;2024-03-22T05:42:12;54.30;;;26.70;;
16119;SDS011;12670;53.502;10.252;2024-03-22T05:45:14;55.13;;;25.87;;
16119;SDS011;12670;53.502;10.252;2024-03-22T05:48:15;49.47;;;25.67;;
16119;SDS011;12670;53.502;10.252;2024-03-22T05:51:17;53.20;;;26.67;;
16119;SDS011;12670;53.502;10.252;2024-03-22T05:54:19;48.63;;;25.67;;
16119;SDS011;12670;53.502;10.252;2024-03-22T05:57:22;50.43;;;26.43;;
16119;SDS011;12670;53.502;10.252;2024-03-22T06:00:23;53.07;;;26.97;;
16119;SDS011;12670;53.502;10.252;2024-03-22T06:03:25;50.90;;;26.00;;
16119;SDS011;12670;53.502;10.252;2024-03-22T06:06:26;51.67;;;27.00;;
16119;SDS011;12670;53.502;10.252;2024-03-22T06:09:27;50.90;;;26.73;;
16119;SDS011;12670;53.502;10.252;2024-03-22T06:12:38;53.40;;;27.93;;
16119;SDS011;12670;53.502;10.252;2024-03-22T06:15:40;52.57;;;26.87;;
16119;SDS011;12670;53.502;10.252;2024-03-22T06:18:45;57.70;;;28.17;;
16119;SDS011;12670;53.502;10.252;2024-03-22T06:21:46;59.50;;;27.53;;
16119;SDS011;12670;53.502;10.252;2024-03-22T06:24:48;50.83;;;27.30;;
16119;SDS011;12670;53.502;10.252;2024-03-22T06:27:50;62.60;;;29.20;;
16119;SDS011;12670;53.502;10.252;2024-03-22T06:30:52;57.47;;;28.37;;
16119;SDS011;12670;53.502;10.252;2024-03-22T06:33:52;58.23;;;28.87;;
16119;SDS011;12670;53.502;10.252;2024-03-22T06:36:54;59.80;;;29.30;;
16119;SDS011;12670;53.502;10.252;2024-03-22T06:39:56;57.20;;;27.93;;
16119;SDS011;12670;53.502;10.252;2024-03-22T06:43:00;62.23;;;29.33;;
16119;SDS011;12670;53.502;10.252;2024-03-22T06:46:01;59.27;;;30.07;;
16119;SDS011;12670;53.502;10.252;2024-03-22T06:49:02;65.30;;;30.90;;
16119;SDS011;12670;53.502;10.252;2024-03-22T06:52:04;62.57;;;30.07;;
16119;SDS011;12670;53.502;10.252;2024-03-22T06:55:05;61.30;;;30.00;;
16119;SDS011;12670;53.502;10.252;2024-03-22T06:58:09;59.87;;;29.97;;
16119;SDS011;12670;53.502;10.252;2024-03-22T07:01:09;63.77;;;31.90;;
16119;SDS011;12670;53.502;10.252;2024-03-22T07:04:11;70.67;;;34.20;;
16119;SDS011;12670;53.502;10.252;2024-03-22T07:07:12;72.07;;;33.87;;
16119;SDS011;12670;53.502;10.252;2024-03-22T07:10:13;64.17;;;31.00;;
16119;SDS011;12670;53.502;10.252;2024-03-22T07:13:16;65.20;;;31.53;;
16119;SDS011;12670;53.502;10.252;2024-03-22T07:16:18;70.60;;;33.20;;
16119;SDS011;12670;53.502;10.252;2024-03-22T07:19:19;72.03;;;33.60;;
16119;SDS011;12670;53.502;10.252;2024-03-22T07:22:21;72.50;;;32.57;;
16119;SDS011;12670;53.502;10.252;2024-03-22T07:25:23;67.67;;;33.27;;
16119;SDS011;12670;53.502;10.252;2024-03-22T07:28:26;69.87;;;32.23;;
16119;SDS011;12670;53.502;10.252;2024-03-22T07:31:28;68.97;;;33.73;;
16119;SDS011;12670;53.502;10.252;2024-03-22T07:34:29;68.87;;;31.73;;
16119;SDS011;12670;53.502;10.252;2024-03-22T07:37:31;64.70;;;31.57;;
16119;SDS011;12670;53.502;10.252;2024-03-22T07:40:32;69.50;;;32.43;;
16119;SDS011;12670;53.502;10.252;2024-03-22T07:43:35;67.57;;;32.23;;
16119;SDS011;12670;53.502;10.252;2024-03-22T07:46:37;65.87;;;32.27;;
16119;SDS011;12670;53.502;10.252;2024-03-22T07:49:38;66.23;;;32.73;;
16119;SDS011;12670;53.502;10.252;2024-03-22T07:52:39;71.37;;;33.93;;
16119;SDS011;12670;53.502;10.252;2024-03-22T07:55:40;68.30;;;32.80;;
16119;SDS011;12670;53.502;10.252;2024-03-22T07:58:43;66.53;;;33.60;;
16119;SDS011;12670;53.502;10.252;2024-03-22T08:01:44;72.97;;;33.97;;
16119;SDS011;12670;53.502;10.252;2024-03-22T08:04:47;67.67;;;33.03;;
16119;SDS011;12670;53.502;10.252;2024-03-22T08:07:49;73.53;;;33.70;;
16119;SDS011;12670;53.502;10.252;2024-03-22T08:10:49;76.33;;;34.90;;
16119;SDS011;12670;53.502;10.252;2024-03-22T08:13:53;68.20;;;33.07;;
16119;SDS011;12670;53.502;10.252;2024-03-22T08:17:01;74.57;;;33.70;;
16119;SDS011;12670;53.502;10.252;2024-03-22T08:20:04;72.53;;;34.63;;
16119;SDS011;12670;53.502;10.252;2024-03-22T08:23:06;74.67;;;34.07;;
16119;SDS011;12670;53.502;10.252;2024-03-22T08:26:07;72.27;;;32.70;;
16119;SDS011;12670;53.502;10.252;2024-03-22T08:29:09;74.27;;;32.77;;
16119;SDS011;12670;53.502;10.252;2024-03-22T08:32:11;68.53;;;32.77;;
16119;SDS011;12670;53.502;10.252;2024-03-22T08:35:12;75.73;;;34.60;;
16119;SDS011;12670;53.502;10.252;2024-03-22T08:38:14;76.90;;;35.37;;
16119;SDS011;12670;53.502;10.252;2024-03-22T08:41:15;73.03;;;33.57;;
16119;SDS011;12670;53.502;10.252;2024-03-22T08:44:18;80.07;;;34.40;;
16119;SDS011;12670;53.502;10.252;2024-03-22T08:47:20;74.07;;;34.53;;
16119;SDS011;12670;53.502;10.252;2024-03-22T08:50:21;75.93;;;34.43;;
16119;SDS011;12670;53.502;10.252;2024-03-22T08:53:22;71.00;;;32.93;;
16119;SDS011;12670;53.502;10.252;2024-03-22T08:56:25;104.13;;;42.33;;
16119;SDS011;12670;53.502;10.252;2024-03-22T08:59:27;90.47;;;38.97;;
16119;SDS011;12670;53.502;10.252;2024-03-22T09:02:29;100.33;;;41.83;;
16119;SDS011;12670;53.502;10.252;2024-03-22T09:05:29;83.60;;;36.43;;
16119;SDS011;12670;53.502;10.252;2024-03-22T09:08:31;79.03;;;35.43;;
16119;SDS011;12670;53.502;10.252;2024-03-22T09:11:34;84.70;;;36.20;;
16119;SDS011;12670;53.502;10.252;2024-03-22T09:14:37;89.30;;;36.37;;
16119;SDS011;12670;53.502;10.252;2024-03-22T09:17:38;77.80;;;34.53;;
16119;SDS011;12670;53.502;10.252;2024-03-22T09:20:40;79.93;;;35.77;;
16119;SDS011;12670;53.502;10.252;2024-03-22T09:23:40;75.63;;;34.37;;
16119;SDS011;12670;53.502;10.252;2024-03-22T09:26:42;73.53;;;34.03;;
16119;SDS011;12670;53.502;10.252;2024-03-22T09:29:45;82.17;;;34.60;;
16119;SDS011;12670;53.502;10.252;2024-03-22T09:32:46;77.00;;;33.83;;
16119;SDS011;12670;53.502;10.252;2024-03-22T09:35:47;83.27;;;35.63;;
16119;SDS011;12670;53.502;10.252;2024-03-22T09:38:49;79.30;;;34.57;;
16119;SDS011;12670;53.502;10.252;2024-03-22T09:41:50;88.03;;;36.73;;
16119;SDS011;12670;53.502;10.252;2024-03-22T09:44:54;89.10;;;36.57;;
16119;SDS011;12670;53.502;10.252;2024-03-22T09:47:55;85.53;;;35.27;;
16119;SDS011;12670;53.502;10.252;2024-03-22T09:50:58;84.47;;;35.07;;
16119;SDS011;12670;53.502;10.252;2024-03-22T09:53:59;90.17;;;36.90;;
16119;SDS011;12670;53.502;10.252;2024-03-22T09:57:01;83.53;;;34.10;;
16119;SDS011;12670;53.502;10.252;2024-03-22T10:00:04;79.27;;;34.30;;
16119;SDS011;12670;53.502;10.252;2024-03-22T10:03:07;76.87;;;32.20;;
16119;SDS011;12670;53.502;10.252;2024-03-22T10:06:10;76.07;;;31.50;;
16119;SDS011;12670;53.502;10.252;2024-03-22T10:09:11;69.80;;;31.33;;
16119;SDS011;12670;53.502;10.252;2024-03-22T10:12:13;77.20;;;33.07;;
16119;SDS011;12670;53.502;10.252;2024-03-22T10:15:15;70.03;;;30.73;;
16119;SDS011;12670;53.502;10.252;2024-03-22T10:18:18;70.30;;;32.20;;
16119;SDS011;12670;53.502;10.252;2024-03-22T10:21:19;67.03;;;29.47;;
16119;SDS011;12670;53.502;10.252;2024-03-22T10:24:21;72.73;;;33.40;;
16119;SDS011;12670;53.502;10.252;2024-03-22T10:27:22;81.40;;;35.17;;
16119;SDS011;12670;53.502;10.252;2024-03-22T10:30:25;87.53;;;37.10;;
16119;SDS011;12670;53.502;10.252;2024-03-22T10:33:26;74.53;;;34.00;;
16119;SDS011;12670;53.502;10.252;2024-03-22T10:36:29;70.93;;;30.10;;
16119;SDS011;12670;53.502;10.252;2024-03-22T10:39:31;70.23;;;30.90;;
16119;SDS011;12670;53.502;10.252;2024-03-22T10:42:35;69.53;;;30.90;;
16119;SDS011;12670;53.502;10.252;2024-03-22T10:45:40;77.23;;;32.03;;
16119;SDS011;12670;53.502;10.252;2024-03-22T10:48:41;69.93;;;30.43;;
16119;SDS011;12670;53.502;10.252;2024-03-22T10:51:46;70.33;;;31.10;;
16119;SDS011;12670;53.502;10.252;2024-03-22T10:54:51;67.83;;;30.63;;
16119;SDS011;12670;53.502;10.252;2024-03-22T10:57:53;73.87;;;30.50;;
16119;SDS011;12670;53.502;10.252;2024-03-22T11:00:57;65.47;;;28.13;;
16119;SDS011;12670;53.502;10.252;2024-03-22T11:04:02;67.37;;;28.30;;
16119;SDS011;12670;53.502;10.252;2024-03-22T11:07:05;61.77;;;26.23;;
16119;SDS011;12670;53.502;10.252;2024-03-22T11:10:08;54.57;;;25.93;;
16119;SDS011;12670;53.502;10.252;2024-03-22T11:13:09;59.17;;;25.43;;
16119;SDS011;12670;53.502;10.252;2024-03-22T11:16:12;58.47;;;25.60;;
16119;SDS011;12670;53.502;10.252;2024-03-22T11:19:14;48.57;;;22.67;;
16119;SDS011;12670;53.502;10.252;2024-03-22T11:22:16;40.37;;;19.90;;
16119;SDS011;12670;53.502;10.252;2024-03-22T11:25:17;39.67;;;18.93;;
16119;SDS011;12670;53.502;10.252;2024-03-22T11:28:19;40.90;;;18.47;;
16119;SDS011;12670;53.502;10.252;2024-03-22T11:31:21;46.83;;;20.60;;
16119;SDS011;12670;53.502;10.252;2024-03-22T11:34:27;38.03;;;18.73;;
16119;SDS011;12670;53.502;10.252;2024-03-22T11:37:29;39.73;;;18.57;;
16119;SDS011;12670;53.502;10.252;2024-03-22T11:40:30;37.20;;;17.33;;
16119;SDS011;12670;53.502;10.252;2024-03-22T11:43:34;39.70;;;17.73;;
16119;SDS011;12670;53.502;10.252;2024-03-22T11:46:36;38.10;;;17.77;;
16119;SDS011;12670;53.502;10.252;2024-03-22T11:49:38;36.67;;;17.10;;
16119;SDS011;12670;53.502;10.252;2024-03-22T11:52:40;35.50;;;17.13;;
16119;SDS011;12670;53.502;10.252;2024-03-22T11:55:42;55.13;;;25.87;;
16119;SDS011;12670;53.502;10.252;2024-03-22T11:58:42;46.37;;;19.53;;
16119;SDS011;12670;53.502;10.252;2024-03-22T12:01:46;44.77;;;21.67;;
16119;SDS011;12670;53.502;10.252;2024-03-22T12:04:47;35.97;;;16.63;;
16119;SDS011;12670;53.502;10.252;2024-03-22T12:07:50;32.07;;;14.87;;
16119;SDS011;12670;53.502;10.252;2024-03-22T12:10:52;34.40;;;15.40;;
16119;SDS011;12670;53.502;10.252;2024-03-22T12:13:53;42.37;;;20.27;;
16119;SDS011;12670;53.502;10.252;2024-03-22T12:16:56;26.33;;;13.50;;
16119;SDS011;12670;53.502;10.252;2024-03-22T12:19:57;27.00;;;14.07;;
16119;SDS011;12670;53.502;10.252;2024-03-22T12:22:59;30.10;;;14.07;;
16119;SDS011;12670;53.502;10.252;2024-03-22T12:26:00;25.03;;;13.23;;
16119;SDS011;12670;53.502;10.252;2024-03-22T12:29:01;26.00;;;12.97;;
16119;SDS011;12670;53.502;10.252;2024-03-22T12:32:06;23.00;;;12.37;;
16119;SDS011;12670;53.502;10.252;2024-03-22T12:35:08;25.80;;;12.30;;
16119;SDS011;12670;53.502;10.252;2024-03-22T12:38:11;21.57;;;11.17;;
16119;SDS011;12670;53.502;10.252;2024-03-22T12:41:14;20.00;;;10.83;;
16119;SDS011;12670;53.502;10.252;2024-03-22T12:44:15;23.27;;;10.90;;
16119;SDS011;12670;53.502;10.252;2024-03-22T12:47:18;21.77;;;10.70;;
16119;SDS011;12670;53.502;10.252;2024-03-22T12:50:19;20.60;;;10.67;;
16119;SDS011;12670;53.502;10.252;2024-03-22T12:53:21;19.43;;;10.50;;
16119;SDS011;12670;53.502;10.252;2024-03-22T12:56:22;20.67;;;10.80;;
16119;SDS011;12670;53.502;10.252;2024-03-22T12:59:24;19.77;;;10.37;;
16119;SDS011;12670;53.502;10.252;2024-03-22T13:02:27;20.53;;;11.00;;
16119;SDS011;12670;53.502;10.252;2024-03-22T13:05:28;22.73;;;10.80;;
16119;SDS011;12670;53.502;10.252;2024-03-22T13:08:31;22.00;;;10.77;;
16119;SDS011;12670;53.502;10.252;2024-03-22T13:11:32;22.13;;;11.33;;
16119;SDS011;12670;53.502;10.252;2024-03-22T13:14:33;18.20;;;10.40;;
16119;SDS011;12670;53.502;10.252;2024-03-22T13:17:36;19.90;;;10.83;;
16119;SDS011;12670;53.502;10.252;2024-03-22T13:20:37;18.03;;;10.17;;
16119;SDS011;12670;53.502;10.252;2024-03-22T13:23:38;17.87;;;9.13;;
16119;SDS011;12670;53.502;10.252;2024-03-22T13:26:40;20.67;;;10.50;;
16119;SDS011;12670;53.502;10.252;2024-03-22T13:29:40;19.13;;;10.43;;
16119;SDS011;12670;53.502;10.252;2024-03-22T13:32:44;18.23;;;9.37;;
16119;SDS011;12670;53.502;10.252;2024-03-22T13:35:45;23.87;;;11.20;;
16119;SDS011;12670;53.502;10.252;2024-03-22T13:38:46;17.43;;;9.70;;
16119;SDS011;12670;53.502;10.252;2024-03-22T13:41:48;17.80;;;10.03;;
16119;SDS011;12670;53.502;10.252;2024-03-22T13:44:49;16.47;;;10.10;;
16119;SDS011;12670;53.502;10.252;2024-03-22T13:47:52;20.43;;;12.77;;
16119;SDS011;12670;53.502;10.252;2024-03-22T13:50:53;23.63;;;13.97;;
16119;SDS011;12670;53.502;10.252;2024-03-22T13:53:56;22.67;;;13.93;;
16119;SDS011;12670;53.502;10.252;2024-03-22T13:56:57;19.97;;;12.80;;
16119;SDS011;12670;53.502;10.252;2024-03-22T13:59:58;12.03;;;8.67;;
16119;SDS011;12670;53.502;10.252;2024-03-22T14:03:01;11.87;;;7.23;;
16119;SDS011;12670;53.502;10.252;2024-03-22T14:06:03;10.77;;;6.27;;
16119;SDS011;12670;53.502;10.252;2024-03-22T14:09:04;9.80;;;6.07;;
16119;SDS011;12670;53.502;10.252;2024-03-22T14:12:10;8.47;;;5.30;;
16119;SDS011;12670;53.502;10.252;2024-03-22T14:15:12;7.13;;;5.17;;
16119;SDS011;12670;53.502;10.252;2024-03-22T14:18:14;7.50;;;5.07;;
16119;SDS011;12670;53.502;10.252;2024-03-22T14:21:16;7.30;;;5.60;;
16119;SDS011;12670;53.502;10.252;2024-03-22T14:24:19;10.63;;;5.70;;
16119;SDS011;12670;53.502;10.252;2024-03-22T14:27:21;8.47;;;6.07;;
16119;SDS011;12670;53.502;10.252;2024-03-22T14:30:21;8.90;;;6.33;;
16119;SDS011;12670;53.502;10.252;2024-03-22T14:33:26;10.77;;;6.83;;
16119;SDS011;12670;53.502;10.252;2024-03-22T14:36:27;10.03;;;6.73;;
16119;SDS011;12670;53.502;10.252;2024-03-22T14:39:29;12.20;;;7.30;;
16119;SDS011;12670;53.502;10.252;2024-03-22T14:42:30;11.43;;;7.93;;
16119;SDS011;12670;53.502;10.252;2024-03-22T14:45:31;13.07;;;9.07;;
16119;SDS011;12670;53.502;10.252;2024-03-22T14:48:33;11.03;;;7.83;;
16119;SDS011;12670;53.502;10.252;2024-03-22T14:51:35;9.87;;;7.30;;
16119;SDS011;12670;53.502;10.252;2024-03-22T14:54:36;8.27;;;5.90;;
16119;SDS011;12670;53.502;10.252;2024-03-22T14:57:38;7.97;;;5.87;;
16119;SDS011;12670;53.502;10.252;2024-03-22T15:00:38;6.67;;;5.20;;
16119;SDS011;12670;53.502;10.252;2024-03-22T15:03:42;7.80;;;5.03;;
16119;SDS011;12670;53.502;10.252;2024-03-22T15:06:43;10.03;;;5.00;;
16119;SDS011;12670;53.502;10.252;2024-03-22T15:09:45;9.50;;;4.60;;
16119;SDS011;12670;53.502;10.252;2024-03-22T15:12:47;12.60;;;3.37;;
16119;SDS011;12670;53.502;10.252;2024-03-22T15:15:51;17.43;;;2.90;;
16119;SDS011;12670;53.502;10.252;2024-03-22T15:18:55;13.13;;;3.70;;
16119;SDS011;12670;53.502;10.252;2024-03-22T15:21:57;14.33;;;4.00;;
16119;SDS011;12670;53.502;10.252;2024-03-22T15:24:59;12.63;;;3.20;;
16119;SDS011;12670;53.502;10.252;2024-03-22T15:28:00;13.83;;;3.57;;
16119;SDS011;12670;53.502;10.252;2024-03-22T15:31:01;11.80;;;2.77;;
16119;SDS011;12670;53.502;10.252;2024-03-22T15:34:04;12.77;;;3.07;;
16119;SDS011;12670;53.502;10.252;2024-03-22T15:37:06;16.93;;;2.80;;
16119;SDS011;12670;53.502;10.252;2024-03-22T15:40:07;11.07;;;2.53;;
16119;SDS011;12670;53.502;10.252;2024-03-22T15:43:10;12.07;;;2.63;;
16119;SDS011;12670;53.502;10.252;2024-03-22T15:46:12;12.40;;;3.03;;
16119;SDS011;12670;53.502;10.252;2024-03-22T15:49:15;16.00;;;3.23;;
16119;SDS011;12670;53.502;10.252;2024-03-22T15:52:15;16.03;;;3.57;;
16119;SDS011;12670;53.502;10.252;2024-03-22T15:55:17;13.30;;;3.63;;
16119;SDS011;12670;53.502;10.252;2024-03-22T15:58:18;21.47;;;3.60;;
16119;SDS011;12670;53.502;10.252;2024-03-22T16:01:20;16.00;;;3.83;;
16119;SDS011;12670;53.502;10.252;2024-03-22T16:04:22;21.97;;;3.40;;
16119;SDS011;12670;53.502;10.252;2024-03-22T16:07:23;18.47;;;3.67;;
16119;SDS011;12670;53.502;10.252;2024-03-22T16:10:24;14.80;;;3.30;;
16119;SDS011;12670;53.502;10.252;2024-03-22T16:13:26;15.90;;;3.50;;
16119;SDS011;12670;53.502;10.252;2024-03-22T16:16:27;17.33;;;4.63;;
16119;SDS011;12670;53.502;10.252;2024-03-22T16:19:30;33.30;;;6.93;;
16119;SDS011;12670;53.502;10.252;2024-03-22T16:22:32;21.93;;;3.83;;
16119;SDS011;12670;53.502;10.252;2024-03-22T16:25:35;22.43;;;5.30;;
16119;SDS011;12670;53.502;10.252;2024-03-22T16:28:36;33.23;;;7.13;;
16119;SDS011;12670;53.502;10.252;2024-03-22T16:31:38;21.60;;;3.87;;
16119;SDS011;12670;53.502;10.252;2024-03-22T16:34:42;20.47;;;5.90;;
16119;SDS011;12670;53.502;10.252;2024-03-22T16:37:43;27.37;;;5.00;;
16119;SDS011;12670;53.502;10.252;2024-03-22T16:40:44;22.83;;;4.83;;
16119;SDS011;12670;53.502;10.252;2024-03-22T16:43:46;21.13;;;4.10;;
16119;SDS011;12670;53.502;10.252;2024-03-22T16:46:47;23.63;;;5.03;;
16119;SDS011;12670;53.502;10.252;2024-03-22T16:49:50;20.77;;;4.93;;
16119;SDS011;12670;53.502;10.252;2024-03-22T16:52:51;22.20;;;4.57;;
16119;SDS011;12670;53.502;10.252;2024-03-22T16:55:53;18.50;;;4.20;;
16119;SDS011;12670;53.502;10.252;2024-03-22T16:58:54;23.63;;;6.20;;
16119;SDS011;12670;53.502;10.252;2024-03-22T17:01:56;23.90;;;4.40;;
16119;SDS011;12670;53.502;10.252;2024-03-22T17:05:00;21.77;;;4.67;;
16119;SDS011;12670;53.502;10.252;2024-03-22T17:08:00;20.77;;;4.13;;
16119;SDS011;12670;53.502;10.252;2024-03-22T17:11:02;22.10;;;4.40;;
16119;SDS011;12670;53.502;10.252;2024-03-22T17:14:03;23.97;;;4.63;;
16119;SDS011;12670;53.502;10.252;2024-03-22T17:17:05;21.33;;;3.70;;
16119;SDS011;12670;53.502;10.252;2024-03-22T17:20:08;24.33;;;4.30;;
16119;SDS011;12670;53.502;10.252;2024-03-22T17:23:14;26.00;;;4.50;;
16119;SDS011;12670;53.502;10.252;2024-03-22T17:26:15;26.30;;;3.97;;
16119;SDS011;12670;53.502;10.252;2024-03-22T17:29:17;23.33;;;4.97;;
16119;SDS011;12670;53.502;10.252;2024-03-22T17:32:18;23.23;;;4.27;;
16119;SDS011;12670;53.502;10.252;2024-03-22T17:35:21;24.93;;;4.23;;